createdAt,value
2019-03-21T18:21:12.490Z,103183.75
2019-03-21T18:23:40.119Z,103194.65
2019-03-21T18:26:07.729Z,103198.52
2019-03-21T18:28:35.409Z,103200.97
2019-03-21T18:31:03.012Z,103204.19
2019-03-21T18:33:30.585Z,103198.35
2019-03-21T18:35:58.238Z,103195.22
2019-03-21T18:38:25.819Z,103202.89
2019-03-21T18:40:53.443Z,103199.19
2019-03-21T18:43:21.089Z,103212.54
2019-03-21T18:45:48.708Z,103217.14
2019-03-21T18:48:16.418Z,103214.83
2019-03-21T18:50:44.047Z,103215.95
2019-03-21T18:53:12.266Z,103220.38
2019-03-21T18:55:39.990Z,103223.63
2019-03-21T18:58:07.597Z,103222.86
2019-03-21T19:00:35.259Z,103225.38
2019-03-21T19:03:02.928Z,103231.42
2019-03-21T19:05:30.700Z,103231.05
2019-03-21T19:07:58.594Z,103227.09
2019-03-21T19:10:26.190Z,103231.01
2019-03-21T19:12:53.803Z,103221.33
2019-03-21T19:15:21.571Z,103230.73
2019-03-21T19:17:49.154Z,103232.36
2019-03-21T19:20:17.306Z,103233.97
2019-03-21T19:22:45.933Z,103227.95
2019-03-21T19:25:20.086Z,103229.94
2019-03-21T19:27:47.731Z,103228.75
2019-03-21T19:30:15.428Z,103230.37
2019-03-21T19:32:48.618Z,103233.03
2019-03-21T19:35:16.944Z,103226.39
2019-03-21T19:37:44.782Z,103224.27
2019-03-21T19:40:12.983Z,103225.19
2019-03-21T19:42:40.634Z,103233.48
2019-03-21T19:45:09.556Z,103237.00
2019-03-21T19:47:37.305Z,103239.92
2019-03-21T19:50:06.807Z,103239.41
2019-03-21T19:52:34.415Z,103242.18
2019-03-21T19:55:02.824Z,103239.22
2019-03-21T19:57:30.717Z,103244.75
2019-03-21T19:59:58.456Z,103239.78
2019-03-21T20:02:28.998Z,103240.37
2019-03-21T20:04:56.852Z,103240.45
2019-03-21T20:07:24.590Z,103241.13
2019-03-21T20:09:52.358Z,103248.13
2019-03-21T20:12:20.323Z,103246.57
2019-03-21T20:14:48.167Z,103248.50
2019-03-21T20:17:15.895Z,103249.27
2019-03-21T20:19:43.726Z,103248.53
2019-03-21T20:22:11.663Z,103243.25
2019-03-21T20:24:39.480Z,103242.30
2019-03-21T20:27:09.902Z,103244.47
2019-03-21T20:29:37.105Z,103236.85
2019-03-21T20:32:04.900Z,103242.56
2019-03-21T20:34:32.535Z,103241.56
2019-03-21T20:37:00.166Z,103243.84
2019-03-21T20:39:28.095Z,103241.57
2019-03-21T20:41:55.870Z,103239.30
2019-03-21T20:44:23.619Z,103235.94
2019-03-21T20:46:51.374Z,103233.77
2019-03-21T20:49:19.098Z,103232.52
2019-03-21T20:51:47.725Z,103239.23
2019-03-21T20:54:20.307Z,103236.78
2019-03-21T20:56:48.588Z,103230.52
2019-03-21T20:59:17.451Z,103230.58
2019-03-21T21:01:45.433Z,103227.89
2019-03-21T21:04:13.178Z,103233.46
2019-03-21T21:07:06.909Z,103231.92
2019-03-21T21:09:34.712Z,103228.67
2019-03-21T21:12:02.902Z,103228.55
2019-03-21T21:15:19.255Z,103227.24
2019-03-21T21:17:46.925Z,103228.20
2019-03-21T21:20:15.003Z,103231.98
2019-03-21T21:22:43.148Z,103225.89
2019-03-21T21:25:16.863Z,103223.91
2019-03-21T21:28:03.521Z,103224.97
2019-03-21T21:30:31.310Z,103220.02
2019-03-21T21:32:58.944Z,103225.17
2019-03-21T21:35:54.867Z,103215.66
2019-03-21T21:38:22.805Z,103215.95
2019-03-21T21:40:50.461Z,103215.63
2019-03-21T21:43:18.287Z,103222.52
2019-03-21T21:45:45.993Z,103214.36
2019-03-21T21:48:13.843Z,103209.33
2019-03-21T21:50:41.538Z,103217.21
2019-03-21T21:53:09.545Z,103218.95
2019-03-21T21:55:37.536Z,103224.58
2019-03-21T21:58:14.585Z,103226.53
2019-03-21T22:00:42.486Z,103222.00
2019-03-21T22:03:10.198Z,103222.55
2019-03-21T22:05:37.866Z,103229.13
2019-03-21T22:08:05.636Z,103222.73
2019-03-21T22:10:42.758Z,103220.13
2019-03-21T22:13:10.410Z,103221.43
2019-03-21T22:15:39.880Z,103223.13
2019-03-21T22:18:07.575Z,103224.47
2019-03-21T22:20:35.196Z,103228.55
2019-03-21T22:23:02.968Z,103217.45
2019-03-21T22:25:30.691Z,103214.47
2019-03-21T22:27:58.381Z,103215.81
2019-03-21T22:31:02.116Z,103216.47
2019-03-21T22:33:29.875Z,103218.84
2019-03-21T22:35:57.536Z,103220.69
2019-03-21T22:38:25.223Z,103225.94
2019-03-21T22:40:52.829Z,103215.09
2019-03-21T22:43:20.544Z,103217.84
2019-03-21T22:45:48.318Z,103214.72
2019-03-21T22:48:15.953Z,103217.47
2019-03-21T22:50:43.950Z,103213.31
2019-03-21T22:53:11.860Z,103207.05
2019-03-21T22:55:39.677Z,103206.92
2019-03-21T22:58:07.308Z,103206.42
2019-03-21T23:00:43.328Z,103202.28
2019-03-21T23:03:11.144Z,103202.81
2019-03-21T23:05:38.735Z,103192.12
2019-03-21T23:08:07.072Z,103197.22
2019-03-21T23:10:34.913Z,103196.83
2019-03-21T23:13:02.822Z,103192.39
2019-03-21T23:15:30.645Z,103192.91
2019-03-21T23:17:58.284Z,103195.77
2019-03-21T23:20:25.960Z,103195.63
2019-03-21T23:22:53.685Z,103204.08
2019-03-21T23:25:22.496Z,103204.16
2019-03-21T23:27:51.961Z,103189.84
2019-03-21T23:30:19.810Z,103192.68
2019-03-21T23:32:47.928Z,103198.30
2019-03-21T23:35:16.076Z,103197.27
2019-03-21T23:37:43.892Z,103197.91
2019-03-21T23:40:12.608Z,103192.65
2019-03-21T23:42:40.262Z,103191.46
2019-03-21T23:45:08.172Z,103185.36
2019-03-21T23:47:52.364Z,103181.71
2019-03-21T23:50:20.291Z,103178.58
2019-03-21T23:52:48.220Z,103179.09
2019-03-21T23:55:16.110Z,103176.39
2019-03-21T23:57:43.834Z,103170.55
